Palestine, Texas
Current Conditions -  °F | °C
As of 6:15 PM on Friday 19 Dec 2014 (Local Time) from KPSN Reporting Station
Haze Haze  
Wind Chill: 46°   Ceiling: 400
Heat Index: 49°   Visibility: 4mi
Dew Point: 49°   Wind: 8mph
Humidity: 98%   Direction: 360°N
Pressure: 30.16"   Gusts: NA
Location:  31.76°N, 95.63°W
Report Text: KPSN 200015Z AUTO 36007KT 4SM BR OVC004 09/09 A3016 RMK AO2 T00950092
Loading
Personal Weather Stations






























Interactive Weather Map New forecast layout! Learn more

10-Day Weather Forecast

Advertisements
Track Severe Weather on mobile